Time;durP1;ratioP1;P1;durP2;ratioP2;P2;SDS_P1;SDS_P2;PMS_P1;PMS_P2;Temp;Humidity;BMP_temperature;BMP_pressure;BME280_temperature;BME280_humidity;BME280_pressure;Samples;Min_cycle;Max_cycle;Signal;HPM_P1;HPM_P2
2024/01/05 00:01:44;;;;;;;11.10;4.07;;;7.40;99.90;;;;;;4904779;29;20187;-71
2024/01/05 00:04:10;;;;;;;10.93;2.83;;;7.40;99.90;;;;;;4892852;29;20207;-70
2024/01/05 00:06:37;;;;;;;18.20;3.73;;;7.40;99.90;;;;;;4903027;29;20458;-67
2024/01/05 00:09:04;;;;;;;17.53;3.90;;;7.50;99.90;;;;;;4873185;29;20290;-69
2024/01/05 00:11:29;;;;;;;7.00;2.20;;;7.50;99.90;;;;;;4893368;29;20474;-72
2024/01/05 00:13:55;;;;;;;9.37;2.83;;;7.50;99.90;;;;;;4876297;29;20700;-69
2024/01/05 00:16:22;;;;;;;13.90;3.00;;;7.50;99.90;;;;;;4881044;29;20223;-69
2024/01/05 00:18:48;;;;;;;9.73;2.87;;;7.50;99.90;;;;;;4895793;29;20203;-71
2024/01/05 00:21:25;;;;;;;12.63;3.10;;;7.50;99.90;;;;;;4893936;29;20436;-68
2024/01/05 00:23:52;;;;;;;9.00;3.03;;;7.60;99.90;;;;;;4899970;29;20447;-70
2024/01/05 00:26:19;;;;;;;11.13;2.60;;;7.60;99.90;;;;;;4871493;29;20456;-72
2024/01/05 00:28:46;;;;;;;10.97;3.13;;;7.60;99.90;;;;;;4896246;29;20873;-69
2024/01/05 00:31:14;;;;;;;11.60;2.73;;;7.60;99.90;;;;;;4901754;29;20503;-69
2024/01/05 00:33:40;;;;;;;10.47;2.90;;;7.60;99.90;;;;;;4896967;29;20644;-70
2024/01/05 00:36:08;;;;;;;9.80;2.60;;;7.60;99.90;;;;;;4891520;29;20443;-69
2024/01/05 00:38:35;;;;;;;8.33;2.53;;;7.60;99.90;;;;;;4897117;29;20429;-69
2024/01/05 00:41:01;;;;;;;10.07;2.80;;;7.60;99.90;;;;;;4893413;29;20709;-68
2024/01/05 00:43:27;;;;;;;8.30;2.20;;;7.60;99.90;;;;;;4888586;29;20436;-69
2024/01/05 00:45:53;;;;;;;9.43;2.17;;;7.60;99.90;;;;;;4893057;29;20436;-69
2024/01/05 00:48:18;;;;;;;10.50;3.60;;;7.60;99.90;;;;;;4901156;29;20521;-69
2024/01/05 00:50:44;;;;;;;7.93;2.63;;;7.60;99.90;;;;;;4879138;29;20307;-69
2024/01/05 00:53:09;;;;;;;5.20;2.43;;;7.60;99.90;;;;;;4891155;29;20184;-68
2024/01/05 00:55:35;;;;;;;8.93;2.90;;;7.60;99.90;;;;;;4899850;29;20211;-72
2024/01/05 00:58:01;;;;;;;7.77;2.50;;;7.50;99.90;;;;;;4900915;29;20190;-70
2024/01/05 01:00:26;;;;;;;8.53;2.40;;;7.40;99.90;;;;;;4892730;29;20199;-69
2024/01/05 01:02:52;;;;;;;9.60;2.80;;;7.30;99.90;;;;;;4891254;29;20211;-70
2024/01/05 01:05:18;;;;;;;6.63;2.17;;;7.30;99.90;;;;;;4881481;29;20245;-71
2024/01/05 01:07:43;;;;;;;12.07;2.70;;;7.20;99.90;;;;;;4889741;29;20266;-70
2024/01/05 01:10:09;;;;;;;14.30;4.03;;;7.20;99.90;;;;;;4895528;29;20683;-70
2024/01/05 01:12:35;;;;;;;6.73;2.23;;;7.10;99.90;;;;;;4888312;29;20528;-70
2024/01/05 01:15:00;;;;;;;7.63;2.17;;;7.10;99.90;;;;;;4889132;29;20643;-68
2024/01/05 01:17:26;;;;;;;6.80;1.97;;;7.00;99.90;;;;;;4896734;29;20191;-69
2024/01/05 01:19:52;;;;;;;6.63;2.27;;;7.00;99.90;;;;;;4866547;29;20606;-69
2024/01/05 01:22:19;;;;;;;6.93;2.10;;;7.00;99.90;;;;;;4895438;29;20492;-71
2024/01/05 01:24:44;;;;;;;13.63;3.33;;;6.90;99.90;;;;;;4897607;29;20431;-70
2024/01/05 01:27:10;;;;;;;9.83;2.53;;;6.90;99.90;;;;;;4896627;29;20436;-69
2024/01/05 01:29:35;;;;;;;10.63;2.60;;;6.90;99.90;;;;;;4900159;29;20223;-68
2024/01/05 01:32:01;;;;;;;5.47;1.77;;;6.90;99.90;;;;;;4893578;29;20267;-69
2024/01/05 01:34:26;;;;;;;7.90;2.23;;;7.00;99.90;;;;;;4890818;29;20196;-69
2024/01/05 01:36:53;;;;;;;8.00;2.47;;;6.90;99.90;;;;;;4900904;29;20215;-68
2024/01/05 01:39:19;;;;;;;11.70;2.63;;;6.90;99.90;;;;;;4899991;29;20210;-69
2024/01/05 01:41:44;;;;;;;9.53;2.30;;;6.90;99.90;;;;;;4881370;29;20423;-68
2024/01/05 01:44:10;;;;;;;13.43;2.97;;;6.90;99.90;;;;;;4893004;29;20243;-68
2024/01/05 01:46:36;;;;;;;12.20;2.40;;;7.00;99.90;;;;;;4899024;29;20222;-68
2024/01/05 01:49:05;;;;;;;9.10;2.20;;;7.00;99.90;;;;;;4894659;29;20268;-69
2024/01/05 01:51:32;;;;;;;15.43;2.40;;;7.00;99.90;;;;;;4899658;29;20877;-67
2024/01/05 01:54:05;;;;;;;8.83;3.63;;;6.90;99.90;;;;;;4888993;29;20450;-67
2024/01/05 01:56:32;;;;;;;14.40;3.00;;;6.90;99.90;;;;;;4898472;29;20571;-68
2024/01/05 01:58:58;;;;;;;6.50;3.40;;;6.90;99.90;;;;;;4899572;29;20502;-67
2024/01/05 02:01:24;;;;;;;9.90;3.40;;;6.90;99.90;;;;;;4882953;29;20428;-67
2024/01/05 02:03:50;;;;;;;13.03;2.63;;;6.90;99.90;;;;;;4888597;29;20431;-68
2024/01/05 02:06:16;;;;;;;7.50;2.20;;;6.90;99.90;;;;;;4896701;29;20234;-68
2024/01/05 02:08:43;;;;;;;10.87;2.10;;;6.90;99.90;;;;;;4891283;29;20420;-68
2024/01/05 02:11:09;;;;;;;6.57;2.27;;;7.00;99.90;;;;;;4891495;29;20219;-69
2024/01/05 02:13:35;;;;;;;5.13;2.40;;;7.00;99.90;;;;;;4903149;29;20416;-69
2024/01/05 02:16:00;;;;;;;5.30;2.30;;;7.00;99.90;;;;;;4898028;29;20238;-70
2024/01/05 02:18:26;;;;;;;5.97;2.23;;;7.00;99.90;;;;;;4901117;29;20191;-69
2024/01/05 02:20:51;;;;;;;6.50;2.20;;;7.00;99.90;;;;;;4895165;29;20246;-68
2024/01/05 02:23:25;;;;;;;7.10;2.10;;;7.00;99.90;;;;;;4897391;29;20279;-71
2024/01/05 02:25:51;;;;;;;14.10;2.20;;;7.00;99.90;;;;;;4882884;29;20290;-68
2024/01/05 02:28:18;;;;;;;10.33;1.87;;;7.00;99.90;;;;;;4882511;29;20455;-67
2024/01/05 02:30:44;;;;;;;7.47;1.83;;;7.00;99.90;;;;;;4889127;29;20467;-68
2024/01/05 02:33:09;;;;;;;13.10;3.30;;;6.90;99.90;;;;;;4897724;29;20467;-67
2024/01/05 02:35:35;;;;;;;7.90;2.47;;;6.90;99.90;;;;;;4897968;29;20219;-69
2024/01/05 02:38:01;;;;;;;13.13;1.97;;;6.90;99.90;;;;;;4888601;29;20211;-67
2024/01/05 02:40:26;;;;;;;10.10;2.77;;;6.90;99.90;;;;;;4880631;29;20204;-68
2024/01/05 02:42:52;;;;;;;15.90;3.00;;;6.90;99.90;;;;;;4881962;29;20461;-68
2024/01/05 02:45:20;;;;;;;7.10;2.30;;;6.80;99.90;;;;;;4889075;29;20560;-68
2024/01/05 02:47:50;;;;;;;7.93;2.20;;;6.80;99.90;;;;;;4888357;29;20195;-67
2024/01/05 02:50:16;;;;;;;6.73;2.03;;;6.80;99.90;;;;;;4889550;29;20553;-68
2024/01/05 02:52:41;;;;;;;6.20;1.87;;;6.80;99.90;;;;;;4903207;29;20443;-66
2024/01/05 02:55:09;;;;;;;9.70;2.30;;;6.80;99.90;;;;;;4895610;29;20478;-69
2024/01/05 02:57:34;;;;;;;9.23;2.63;;;6.80;99.90;;;;;;4893327;29;20262;-68
2024/01/05 03:00:00;;;;;;;7.10;2.70;;;6.80;99.90;;;;;;4902266;29;20431;-68
2024/01/05 03:02:26;;;;;;;9.43;2.17;;;6.80;99.90;;;;;;4885338;29;20353;-69
2024/01/05 03:04:51;;;;;;;7.17;1.80;;;6.80;99.90;;;;;;4894137;29;20226;-68
2024/01/05 03:07:18;;;;;;;6.83;1.93;;;6.80;99.90;;;;;;4890957;29;20259;-68
2024/01/05 03:09:43;;;;;;;7.50;2.00;;;6.80;99.90;;;;;;4891484;29;20206;-68
2024/01/05 03:12:09;;;;;;;8.00;2.27;;;6.80;99.90;;;;;;4895806;29;20420;-69
2024/01/05 03:14:34;;;;;;;11.90;2.60;;;6.80;99.90;;;;;;4893140;29;20186;-67
2024/01/05 03:17:01;;;;;;;5.57;1.90;;;6.80;99.90;;;;;;4883808;29;20216;-68
2024/01/05 03:19:27;;;;;;;9.07;2.83;;;6.80;99.90;;;;;;4895162;29;20237;-68
2024/01/05 03:21:53;;;;;;;7.07;2.30;;;6.80;99.90;;;;;;4903240;29;20877;-68
2024/01/05 03:24:18;;;;;;;9.10;2.77;;;6.80;99.90;;;;;;4884589;29;20440;-69
2024/01/05 03:26:44;;;;;;;6.70;2.27;;;6.80;99.90;;;;;;4885917;29;20284;-67
2024/01/05 03:29:10;;;;;;;7.43;2.37;;;6.90;99.90;;;;;;4888338;29;20691;-69
2024/01/05 03:31:35;;;;;;;5.40;2.33;;;6.90;99.90;;;;;;4886712;29;20623;-69
2024/01/05 03:34:01;;;;;;;4.03;1.80;;;6.90;99.90;;;;;;4888068;29;20235;-68
2024/01/05 03:36:26;;;;;;;5.53;1.70;;;6.90;99.90;;;;;;4900368;29;20211;-68
2024/01/05 03:38:54;;;;;;;9.87;2.37;;;6.90;99.90;;;;;;4896996;29;20600;-68
2024/01/05 03:41:19;;;;;;;6.40;3.40;;;6.90;99.90;;;;;;4887146;29;20615;-69
2024/01/05 03:43:45;;;;;;;9.30;2.00;;;6.90;99.90;;;;;;4897749;29;20423;-69
2024/01/05 03:46:11;;;;;;;4.10;1.50;;;6.80;99.90;;;;;;4889244;29;20609;-68
2024/01/05 03:48:37;;;;;;;5.43;1.80;;;6.70;99.90;;;;;;4896821;29;20194;-69
2024/01/05 03:51:03;;;;;;;8.97;2.20;;;6.60;99.90;;;;;;4901688;29;20751;-69
2024/01/05 03:53:29;;;;;;;7.73;3.00;;;6.60;99.90;;;;;;4901790;29;20412;-68
2024/01/05 03:55:58;;;;;;;10.00;3.27;;;6.50;99.90;;;;;;4890780;29;20441;-68
2024/01/05 03:58:24;;;;;;;12.00;2.60;;;6.50;99.90;;;;;;4883529;29;20417;-68
2024/01/05 04:00:49;;;;;;;8.47;2.30;;;6.50;99.90;;;;;;4884050;29;20428;-69
2024/01/05 04:03:17;;;;;;;10.27;2.30;;;6.50;99.90;;;;;;4888100;29;20492;-68
2024/01/05 04:05:43;;;;;;;8.13;2.00;;;6.50;99.90;;;;;;4885336;29;20227;-68
2024/01/05 04:08:08;;;;;;;6.90;2.30;;;6.60;99.90;;;;;;4885333;29;20435;-68
2024/01/05 04:10:35;;;;;;;7.50;2.77;;;6.60;99.90;;;;;;4899375;29;20919;-67
2024/01/05 04:13:00;;;;;;;4.93;1.40;;;6.60;99.90;;;;;;4896680;29;20521;-68
2024/01/05 04:15:27;;;;;;;5.63;1.97;;;6.60;99.90;;;;;;4882555;29;20476;-69
2024/01/05 04:17:53;;;;;;;6.43;2.20;;;6.60;99.90;;;;;;4884636;29;20207;-68
2024/01/05 04:20:19;;;;;;;6.53;2.47;;;6.70;99.90;;;;;;4889459;29;20440;-68
2024/01/05 04:22:44;;;;;;;6.80;2.20;;;6.80;99.90;;;;;;4895404;29;20210;-69
2024/01/05 04:25:10;;;;;;;5.73;2.07;;;7.00;99.90;;;;;;4894822;29;20302;-68
2024/01/05 04:27:35;;;;;;;3.90;2.37;;;7.10;99.90;;;;;;4895089;29;20477;-69
2024/01/05 04:30:01;;;;;;;6.53;2.60;;;7.20;99.90;;;;;;4898026;29;20270;-68
2024/01/05 04:32:27;;;;;;;5.90;2.33;;;7.30;99.90;;;;;;4899748;29;20653;-67
2024/01/05 04:34:52;;;;;;;6.63;2.00;;;7.40;99.90;;;;;;4902201;29;20219;-68
2024/01/05 04:37:18;;;;;;;4.30;2.10;;;7.40;99.90;;;;;;4887589;29;20192;-68
2024/01/05 04:39:43;;;;;;;5.23;2.17;;;7.50;99.90;;;;;;4883879;29;20207;-69
2024/01/05 04:42:11;;;;;;;4.60;2.07;;;7.60;99.90;;;;;;4881963;29;20640;-69
2024/01/05 04:44:37;;;;;;;5.87;2.83;;;7.60;99.90;;;;;;4885074;29;20520;-71
2024/01/05 04:47:02;;;;;;;6.57;2.63;;;7.70;99.90;;;;;;4898593;29;20435;-68
2024/01/05 04:49:28;;;;;;;7.07;2.20;;;7.70;99.90;;;;;;4896746;29;20187;-69
2024/01/05 04:51:54;;;;;;;13.27;2.50;;;7.80;99.90;;;;;;4885917;29;20226;-68
2024/01/05 04:54:19;;;;;;;6.17;2.03;;;7.80;99.90;;;;;;4885464;29;20200;-68
2024/01/05 04:56:45;;;;;;;2.73;1.80;;;7.80;99.90;;;;;;4894789;29;20239;-68
2024/01/05 04:59:10;;;;;;;3.87;1.93;;;7.80;99.90;;;;;;4900994;29;20262;-68
2024/01/05 05:01:36;;;;;;;4.33;1.80;;;7.80;99.90;;;;;;4892284;29;20215;-69
2024/01/05 05:04:01;;;;;;;7.47;2.40;;;7.90;99.90;;;;;;4901332;29;20229;-68
2024/01/05 05:06:27;;;;;;;8.10;2.23;;;7.90;99.90;;;;;;4885308;29;20258;-68
2024/01/05 05:08:53;;;;;;;6.60;2.40;;;7.90;99.90;;;;;;4902766;29;20195;-68
2024/01/05 05:11:19;;;;;;;3.83;1.87;;;7.90;99.90;;;;;;4902969;29;20598;-68
2024/01/05 05:13:45;;;;;;;4.37;1.97;;;7.80;99.90;;;;;;4891912;29;20283;-69
2024/01/05 05:16:10;;;;;;;4.73;1.73;;;7.70;99.90;;;;;;4902304;29;20515;-69
2024/01/05 05:18:36;;;;;;;7.13;1.83;;;7.70;99.90;;;;;;4893403;29;20206;-68
2024/01/05 05:21:02;;;;;;;4.90;1.80;;;7.60;99.90;;;;;;4894270;29;20230;-70
2024/01/05 05:23:28;;;;;;;12.20;2.10;;;7.70;99.90;;;;;;4897183;29;20384;-70
2024/01/05 05:25:54;;;;;;;5.70;1.77;;;7.80;99.90;;;;;;4900515;29;20471;-70
2024/01/05 05:28:20;;;;;;;7.43;2.17;;;7.90;99.90;;;;;;4895397;29;20561;-69
2024/01/05 05:30:45;;;;;;;5.40;1.63;;;8.00;99.90;;;;;;4888562;29;20495;-68
2024/01/05 05:33:11;;;;;;;9.03;2.10;;;8.10;99.90;;;;;;4887358;29;20235;-70
2024/01/05 05:35:36;;;;;;;5.87;2.00;;;8.20;99.90;;;;;;4891585;29;20238;-69
2024/01/05 05:38:03;;;;;;;3.73;1.50;;;8.30;99.90;;;;;;4897498;29;20671;-69
2024/01/05 05:40:30;;;;;;;6.43;2.27;;;8.30;99.90;;;;;;4903416;29;20194;-68
2024/01/05 05:42:55;;;;;;;6.47;2.40;;;8.40;99.90;;;;;;4899248;29;20452;-69
2024/01/05 05:45:21;;;;;;;6.17;2.30;;;8.40;99.90;;;;;;4896861;29;20432;-69
2024/01/05 05:47:46;;;;;;;4.63;1.90;;;8.50;99.90;;;;;;4899473;29;20194;-69
2024/01/05 05:50:13;;;;;;;4.00;2.10;;;8.50;99.90;;;;;;4900710;29;20211;-68
2024/01/05 05:52:39;;;;;;;5.53;2.13;;;8.50;99.90;;;;;;4893890;29;20258;-69
2024/01/05 05:55:06;;;;;;;4.20;1.93;;;8.60;99.90;;;;;;4896484;29;20481;-70
2024/01/05 05:57:32;;;;;;;5.53;1.60;;;8.60;99.90;;;;;;4895164;29;20939;-70
2024/01/05 05:59:59;;;;;;;9.80;2.97;;;8.60;99.90;;;;;;4882837;29;20424;-70
2024/01/05 06:02:25;;;;;;;6.63;1.70;;;8.60;99.90;;;;;;4900445;29;20460;-70
2024/01/05 06:04:50;;;;;;;3.60;1.50;;;8.60;99.90;;;;;;4889465;29;20428;-68
2024/01/05 06:07:16;;;;;;;6.17;2.03;;;8.60;99.90;;;;;;4902167;29;20419;-68
2024/01/05 06:09:43;;;;;;;7.37;2.70;;;8.50;99.90;;;;;;4893565;29;20211;-70
2024/01/05 06:12:09;;;;;;;4.90;1.97;;;8.40;99.90;;;;;;4897436;29;20435;-69
2024/01/05 06:14:36;;;;;;;6.03;2.23;;;8.20;99.90;;;;;;4901870;29;20697;-69
2024/01/05 06:17:02;;;;;;;4.97;2.30;;;8.10;99.90;;;;;;4900340;29;20471;-70
2024/01/05 06:19:27;;;;;;;6.53;2.07;;;8.00;99.90;;;;;;4883211;29;20420;-68
2024/01/05 06:21:53;;;;;;;2.83;1.50;;;7.90;99.90;;;;;;4894543;29;20518;-71
2024/01/05 06:24:18;;;;;;;6.97;2.40;;;7.80;99.90;;;;;;4902192;29;20187;-73
2024/01/05 06:26:44;;;;;;;4.37;1.87;;;7.70;99.90;;;;;;4900146;29;20219;-70
2024/01/05 06:29:09;;;;;;;5.03;1.60;;;7.70;99.90;;;;;;4886494;29;20548;-70
2024/01/05 06:31:35;;;;;;;7.37;1.60;;;7.70;99.90;;;;;;4886098;29;20644;-69
2024/01/05 06:34:01;;;;;;;5.73;2.23;;;7.60;99.90;;;;;;4893925;29;20230;-70
2024/01/05 06:36:26;;;;;;;10.80;2.40;;;7.60;99.90;;;;;;4896073;29;20207;-69
2024/01/05 06:38:52;;;;;;;7.20;2.70;;;7.50;99.90;;;;;;4893733;29;20249;-69
2024/01/05 06:41:17;;;;;;;3.73;1.80;;;7.50;99.90;;;;;;4885537;29;20242;-68
2024/01/05 06:43:43;;;;;;;6.87;1.90;;;7.40;99.90;;;;;;4888494;29;20661;-69
2024/01/05 06:46:08;;;;;;;8.10;2.00;;;7.40;99.90;;;;;;4882420;29;20219;-70
2024/01/05 06:48:34;;;;;;;4.33;1.80;;;7.40;99.90;;;;;;4888242;29;20286;-71
2024/01/05 06:50:59;;;;;;;6.33;2.03;;;7.50;99.90;;;;;;4886174;29;20215;-72
2024/01/05 06:53:25;;;;;;;5.53;2.00;;;7.60;99.90;;;;;;4891675;29;20239;-70
2024/01/05 06:55:51;;;;;;;10.20;1.83;;;7.70;99.90;;;;;;4893697;29;20219;-68
2024/01/05 06:58:16;;;;;;;6.93;1.90;;;7.70;99.90;;;;;;4899759;29;20179;-69
2024/01/05 07:00:42;;;;;;;4.57;1.90;;;7.80;99.90;;;;;;4902957;29;20203;-69
2024/01/05 07:03:08;;;;;;;4.53;2.63;;;7.70;99.90;;;;;;4900045;29;20472;-70
2024/01/05 07:05:33;;;;;;;3.67;2.00;;;7.70;99.90;;;;;;4893441;29;20452;-71
2024/01/05 07:07:59;;;;;;;5.33;2.00;;;7.70;99.90;;;;;;4890940;29;20206;-71
2024/01/05 07:10:25;;;;;;;4.63;1.80;;;7.70;99.90;;;;;;4898971;29;20352;-69
2024/01/05 07:12:50;;;;;;;6.53;1.90;;;7.80;99.90;;;;;;4894510;29;20251;-68
2024/01/05 07:15:16;;;;;;;4.57;2.50;;;7.80;99.90;;;;;;4883329;29;20271;-69
2024/01/05 07:17:43;;;;;;;5.30;2.47;;;7.80;99.90;;;;;;4886996;29;20279;-71
2024/01/05 07:20:11;;;;;;;2.47;1.77;;;7.80;99.90;;;;;;4889926;29;20286;-69
2024/01/05 07:22:37;;;;;;;7.07;2.03;;;7.70;99.90;;;;;;4889639;29;20873;-70
2024/01/05 07:25:04;;;;;;;3.30;1.60;;;7.70;99.90;;;;;;4889635;29;20469;-69
2024/01/05 07:27:29;;;;;;;4.33;1.80;;;7.50;99.90;;;;;;4885441;29;20472;-70
2024/01/05 07:29:55;;;;;;;6.53;2.27;;;7.50;99.90;;;;;;4897522;29;20871;-70
2024/01/05 07:32:21;;;;;;;3.70;1.87;;;7.40;99.90;;;;;;4891133;29;20238;-70
2024/01/05 07:34:46;;;;;;;6.97;1.70;;;7.30;99.90;;;;;;4900174;29;20427;-72
2024/01/05 07:37:12;;;;;;;3.60;1.40;;;7.40;99.90;;;;;;4882694;29;20187;-70
2024/01/05 07:39:38;;;;;;;4.03;2.33;;;7.50;99.90;;;;;;4894121;29;20207;-72
2024/01/05 07:42:04;;;;;;;4.53;1.50;;;7.50;99.90;;;;;;4893410;29;20202;-71
2024/01/05 07:44:30;;;;;;;6.67;2.20;;;7.60;99.90;;;;;;4899546;29;20443;-70
2024/01/05 07:46:55;;;;;;;4.90;2.03;;;7.60;99.90;;;;;;4888774;29;20454;-72
2024/01/05 07:49:21;;;;;;;5.40;1.83;;;7.70;99.90;;;;;;4899726;29;20268;-71
2024/01/05 07:51:47;;;;;;;4.60;1.67;;;7.70;99.90;;;;;;4892467;29;20499;-69
2024/01/05 07:54:12;;;;;;;6.43;1.60;;;7.70;99.90;;;;;;4872967;29;20227;-71
2024/01/05 07:56:38;;;;;;;4.40;1.70;;;7.70;99.90;;;;;;4890690;29;20215;-71
2024/01/05 07:59:04;;;;;;;4.00;1.60;;;7.60;99.90;;;;;;4875532;29;20627;-71
2024/01/05 08:01:30;;;;;;;7.20;2.53;;;7.60;99.90;;;;;;4900992;29;20203;-70
2024/01/05 08:03:56;;;;;;;4.33;1.80;;;7.50;99.90;;;;;;4905008;29;20427;-69
2024/01/05 08:06:21;;;;;;;3.33;1.70;;;7.50;99.90;;;;;;4895266;29;20485;-71
2024/01/05 08:08:49;;;;;;;5.80;2.63;;;7.50;99.90;;;;;;4901028;29;20239;-72
2024/01/05 08:11:16;;;;;;;4.10;1.70;;;7.60;99.90;;;;;;4874732;29;20725;-70
2024/01/05 08:13:43;;;;;;;4.60;1.67;;;7.70;99.90;;;;;;4903562;29;20463;-71
2024/01/05 08:16:10;;;;;;;5.00;1.70;;;7.80;99.90;;;;;;4900518;29;20471;-74
2024/01/05 08:18:36;;;;;;;5.10;1.37;;;7.80;99.90;;;;;;4886974;29;20435;-70
2024/01/05 08:21:02;;;;;;;2.60;1.50;;;7.90;99.90;;;;;;4888760;29;20934;-71
2024/01/05 08:23:28;;;;;;;5.40;1.43;;;7.90;99.90;;;;;;4896260;29;20470;-73
2024/01/05 08:25:54;;;;;;;4.13;1.90;;;8.00;99.90;;;;;;4902061;29;20514;-71
2024/01/05 08:28:20;;;;;;;5.07;2.17;;;8.00;99.90;;;;;;4871824;29;20507;-74
2024/01/05 08:30:45;;;;;;;4.13;2.33;;;8.00;99.90;;;;;;4899794;29;20334;-71
2024/01/05 08:33:11;;;;;;;4.37;1.33;;;8.00;99.90;;;;;;4902265;29;20223;-72
2024/01/05 08:35:36;;;;;;;3.80;1.30;;;8.00;99.90;;;;;;4910951;29;20214;-74
2024/01/05 08:38:02;;;;;;;6.80;1.10;;;7.90;99.90;;;;;;4897181;29;20191;-73
2024/01/05 08:40:29;;;;;;;3.53;1.03;;;8.00;99.90;;;;;;4905831;29;20243;-72
2024/01/05 08:42:55;;;;;;;1.73;0.70;;;8.10;99.90;;;;;;4897618;29;20204;-72
2024/01/05 08:45:22;;;;;;;2.60;1.07;;;8.20;99.90;;;;;;4902072;29;20451;-73
2024/01/05 08:47:47;;;;;;;2.20;1.00;;;8.40;99.90;;;;;;4873983;29;20872;-72
2024/01/05 08:50:13;;;;;;;5.03;1.20;;;8.50;99.90;;;;;;4893819;29;20500;-71
2024/01/05 08:52:39;;;;;;;4.03;0.90;;;8.50;99.90;;;;;;4897162;29;20220;-71
2024/01/05 08:55:05;;;;;;;2.03;1.00;;;8.50;99.90;;;;;;4880486;29;20216;-71
2024/01/05 08:57:31;;;;;;;9.07;1.30;;;8.50;99.90;;;;;;4900037;29;20767;-71
2024/01/05 08:59:56;;;;;;;4.83;1.20;;;8.60;99.90;;;;;;4898895;29;20452;-72
2024/01/05 09:02:22;;;;;;;1.27;0.70;;;8.70;99.90;;;;;;4900598;29;20179;-73
2024/01/05 09:04:48;;;;;;;3.80;1.23;;;8.80;99.90;;;;;;4905310;29;20309;-72
2024/01/05 09:07:14;;;;;;;1.00;0.77;;;9.00;99.90;;;;;;4890069;29;20435;-71
2024/01/05 09:09:40;;;;;;;2.90;1.20;;;9.10;99.90;;;;;;4896296;29;20188;-71
2024/01/05 09:12:07;;;;;;;3.53;0.80;;;9.20;99.90;;;;;;4905017;29;20203;-74
2024/01/05 09:14:33;;;;;;;1.03;0.70;;;9.30;99.90;;;;;;4896871;29;20195;-70
2024/01/05 09:16:58;;;;;;;1.33;0.70;;;9.30;99.70;;;;;;4891494;29;20504;-72
2024/01/05 09:19:24;;;;;;;1.17;0.60;;;9.30;98.70;;;;;;4902326;29;20199;-72
2024/01/05 09:21:50;;;;;;;1.57;0.73;;;9.30;98.20;;;;;;4904810;29;20211;-73
2024/01/05 09:24:15;;;;;;;1.07;0.60;;;9.30;97.30;;;;;;4874369;29;20192;-72
2024/01/05 09:26:42;;;;;;;1.60;0.77;;;9.30;96.80;;;;;;4904218;29;20238;-71
2024/01/05 09:29:07;;;;;;;1.43;0.80;;;9.30;95.90;;;;;;4890860;29;20204;-73
2024/01/05 09:31:33;;;;;;;1.33;0.77;;;9.20;95.70;;;;;;4896277;29;20467;-71
2024/01/05 09:33:59;;;;;;;1.73;0.90;;;9.20;95.50;;;;;;4907655;29;20215;-74
2024/01/05 09:36:25;;;;;;;0.90;0.60;;;9.10;95.10;;;;;;4893729;29;20212;-72
2024/01/05 09:38:50;;;;;;;1.40;0.80;;;9.10;95.20;;;;;;4896985;29;20221;-71
2024/01/05 09:41:16;;;;;;;1.63;0.73;;;9.00;95.30;;;;;;4898400;29;20206;-72
2024/01/05 09:43:47;;;;;;;1.57;0.80;;;9.10;94.50;;;;;;4896355;29;20195;-73
2024/01/05 09:46:12;;;;;;;1.87;0.60;;;9.20;94.10;;;;;;4894790;29;20223;-71
2024/01/05 09:48:38;;;;;;;1.37;0.77;;;9.30;92.30;;;;;;4894210;29;20446;-72
2024/01/05 09:51:07;;;;;;;1.60;0.80;;;9.40;92.20;;;;;;4892059;29;20207;-74
2024/01/05 09:53:32;;;;;;;2.50;0.80;;;9.50;91.90;;;;;;4896729;29;20227;-74
2024/01/05 09:55:59;;;;;;;1.97;0.77;;;9.50;91.10;;;;;;4899439;29;20447;-74
2024/01/05 09:58:25;;;;;;;1.30;0.80;;;9.60;90.70;;;;;;4891251;29;20940;-71
2024/01/05 10:00:52;;;;;;;1.73;0.80;;;9.70;88.70;;;;;;4892967;29;20431;-73
2024/01/05 10:03:23;;;;;;;3.23;0.80;;;9.70;88.40;;;;;;4895097;29;20448;-72
2024/01/05 10:05:56;;;;;;;1.27;0.70;;;9.80;88.10;;;;;;4904717;29;20455;-73
2024/01/05 10:08:22;;;;;;;1.40;0.60;;;9.90;88.00;;;;;;4898442;29;20902;-73
2024/01/05 10:10:49;;;;;;;1.10;0.60;;;9.90;87.40;;;;;;4899280;29;20459;-72
2024/01/05 10:13:15;;;;;;;3.33;1.13;;;9.90;86.20;;;;;;4895750;29;20460;-73
2024/01/05 10:15:55;;;;;;;3.63;1.40;;;9.90;86.70;;;;;;4879516;29;20456;-70
2024/01/05 10:18:22;;;;;;;1.90;1.00;;;9.90;84.60;;;;;;4896174;29;20441;-70
2024/01/05 10:20:48;;;;;;;1.37;0.80;;;10.00;83.60;;;;;;4902656;29;20435;-73
2024/01/05 10:23:14;;;;;;;2.50;1.37;;;10.00;83.20;;;;;;4902629;29;20432;-72
2024/01/05 10:25:39;;;;;;;1.37;0.97;;;10.10;82.10;;;;;;4898356;29;20456;-73
2024/01/05 10:28:33;;;;;;;1.67;0.80;;;10.20;81.20;;;;;;4895134;29;20450;-71
2024/01/05 10:31:13;;;;;;;1.40;0.90;;;10.30;80.80;;;;;;4899804;29;20224;-73
2024/01/05 10:33:52;;;;;;;1.87;0.90;;;10.40;78.80;;;;;;4901584;29;20518;-74
2024/01/05 10:36:19;;;;;;;3.77;0.80;;;10.40;78.50;;;;;;4897431;29;20471;-74
2024/01/05 10:38:47;;;;;;;1.40;0.90;;;10.40;78.50;;;;;;4904730;29;20849;-72
2024/01/05 10:41:13;;;;;;;4.07;1.40;;;10.40;77.70;;;;;;4903851;29;20426;-72
2024/01/05 10:43:41;;;;;;;2.60;1.07;;;10.40;76.90;;;;;;4885771;29;20452;-73
2024/01/05 10:46:11;;;;;;;2.67;1.40;;;10.40;76.70;;;;;;4896696;29;20224;-73
2024/01/05 10:48:39;;;;;;;1.60;1.00;;;10.30;77.30;;;;;;4893761;29;20444;-73
2024/01/05 10:51:06;;;;;;;2.50;0.70;;;10.30;77.40;;;;;;4900164;29;20470;-72
2024/01/05 10:53:32;;;;;;;2.17;1.27;;;10.30;77.30;;;;;;4885772;29;20491;-74
2024/01/05 10:56:00;;;;;;;1.40;0.80;;;10.30;76.40;;;;;;4908127;29;20445;-74
2024/01/05 10:58:25;;;;;;;1.30;0.70;;;10.20;76.40;;;;;;4879861;29;20509;-74
2024/01/05 11:02:02;;;;;;;2.93;1.10;;;10.10;76.00;;;;;;4900108;29;20424;-85
2024/01/05 16:00:54;;;;;;;3.03;1.13;;;8.80;81.20;;;;;;5997056;23;20429;31
2024/01/05 16:03:20;;;;;;;2.53;1.60;;;8.80;81.80;;;;;;4887052;29;20552;-77
2024/01/05 16:05:45;;;;;;;2.60;1.20;;;8.70;81.90;;;;;;4853006;29;20480;-77
2024/01/05 16:08:11;;;;;;;4.03;1.50;;;8.70;82.10;;;;;;4865915;29;20201;-75
2024/01/05 16:10:36;;;;;;;3.47;1.23;;;8.70;82.00;;;;;;4847149;29;20274;-74
2024/01/05 16:13:03;;;;;;;3.93;1.40;;;8.70;82.20;;;;;;4871455;29;20624;-76
2024/01/05 16:15:29;;;;;;;3.23;1.20;;;8.70;82.50;;;;;;4850041;29;20627;-75
2024/01/05 16:17:54;;;;;;;2.70;1.43;;;8.70;82.40;;;;;;4840975;29;20536;-75
2024/01/05 16:20:20;;;;;;;5.20;2.33;;;8.70;82.50;;;;;;4867846;29;20212;-75
2024/01/05 16:22:45;;;;;;;5.20;2.73;;;8.60;82.40;;;;;;4849596;29;20203;-76
2024/01/05 16:25:11;;;;;;;8.40;2.60;;;8.60;82.70;;;;;;4826536;29;20647;-76
2024/01/05 16:27:37;;;;;;;4.67;2.13;;;8.60;82.70;;;;;;4873403;29;20197;-76
2024/01/05 16:30:04;;;;;;;3.67;1.63;;;8.60;82.60;;;;;;4840641;29;20195;-75
2024/01/05 16:32:30;;;;;;;5.60;1.57;;;8.60;82.60;;;;;;4851073;29;20211;-74
2024/01/05 16:34:55;;;;;;;5.33;1.87;;;8.60;82.50;;;;;;4870242;29;20425;-75
2024/01/05 16:37:21;;;;;;;4.53;1.30;;;8.60;82.40;;;;;;4865912;29;20197;-76
2024/01/05 16:39:46;;;;;;;4.57;1.70;;;8.60;82.50;;;;;;4864665;29;20599;-76
2024/01/05 16:42:12;;;;;;;4.23;1.57;;;8.60;82.70;;;;;;4849055;29;20578;-75
2024/01/05 16:44:40;;;;;;;5.33;1.90;;;8.60;82.80;;;;;;4852712;29;20197;-76
2024/01/05 16:47:05;;;;;;;3.80;1.83;;;8.60;82.50;;;;;;4837383;29;20216;-75
2024/01/05 16:49:31;;;;;;;3.63;1.57;;;8.60;82.50;;;;;;4848476;29;20440;-72
2024/01/05 16:51:56;;;;;;;5.13;1.60;;;8.60;82.70;;;;;;4863797;29;20233;-75
2024/01/05 16:54:22;;;;;;;5.60;2.43;;;8.60;83.70;;;;;;4855794;29;20181;-74
2024/01/05 16:56:50;;;;;;;6.27;2.47;;;8.60;82.90;;;;;;4851846;29;20295;-75
2024/01/05 16:59:16;;;;;;;3.03;1.63;;;8.60;83.00;;;;;;4864827;29;20704;-75
2024/01/05 17:01:41;;;;;;;3.20;1.63;;;8.60;83.00;;;;;;4850430;29;20477;-75
2024/01/05 17:04:08;;;;;;;4.27;1.80;;;8.60;82.90;;;;;;4876056;29;20209;-76
2024/01/05 17:06:36;;;;;;;3.00;2.10;;;8.60;82.70;;;;;;4851901;29;20509;-75
2024/01/05 17:09:03;;;;;;;6.97;1.87;;;8.60;82.50;;;;;;4867844;29;20449;-74
2024/01/05 17:11:28;;;;;;;3.90;1.20;;;8.60;82.80;;;;;;4849720;29;20453;-74
2024/01/05 17:13:56;;;;;;;3.47;1.23;;;8.60;82.90;;;;;;4860772;29;20409;-76
2024/01/05 17:16:22;;;;;;;3.20;1.40;;;8.60;83.30;;;;;;4864825;29;20525;-76
2024/01/05 17:18:50;;;;;;;4.90;2.00;;;8.60;83.70;;;;;;4860318;29;20429;-76
2024/01/05 17:21:15;;;;;;;3.67;1.33;;;8.50;83.80;;;;;;4835527;29;20509;-77
2024/01/05 17:23:42;;;;;;;3.13;1.30;;;8.50;84.10;;;;;;4874652;29;20417;-76
2024/01/05 17:26:08;;;;;;;14.97;3.17;;;8.50;84.30;;;;;;4851451;29;20225;-76
2024/01/05 17:28:34;;;;;;;7.90;2.27;;;8.50;84.60;;;;;;4866474;29;20492;-75
2024/01/05 17:31:00;;;;;;;2.90;1.40;;;8.50;85.20;;;;;;4862080;29;20544;-75
2024/01/05 17:33:25;;;;;;;7.50;1.87;;;8.50;85.40;;;;;;4861381;29;20757;-76
2024/01/05 17:35:55;;;;;;;3.87;1.80;;;8.50;85.40;;;;;;4844449;29;20678;-76
2024/01/05 17:38:21;;;;;;;2.40;1.63;;;8.50;85.80;;;;;;4840216;29;20188;-76
2024/01/05 17:40:46;;;;;;;2.33;1.57;;;8.50;85.90;;;;;;4872901;29;20490;-75
2024/01/05 17:43:12;;;;;;;4.17;1.43;;;8.50;86.40;;;;;;4865628;29;20432;-76
2024/01/05 17:45:38;;;;;;;4.93;1.43;;;8.50;86.60;;;;;;4852312;29;20216;-75
2024/01/05 17:48:04;;;;;;;4.13;2.07;;;8.50;87.00;;;;;;4864840;29;20212;-76